sensor_id;sensor_type;location;lat;lon;timestamp;P1;durP1;ratioP1;P2;durP2;ratioP2
69256;SDS011;56376;53.356;-1.748;2022-09-28T00:01:51;5.57;;;2.13;;
69256;SDS011;56376;53.356;-1.748;2022-09-28T00:04:16;2.87;;;1.67;;
69256;SDS011;56376;53.356;-1.748;2022-09-28T00:06:42;3.47;;;1.60;;
69256;SDS011;56376;53.356;-1.748;2022-09-28T00:09:08;2.23;;;1.80;;
69256;SDS011;56376;53.356;-1.748;2022-09-28T00:11:34;2.67;;;1.50;;
69256;SDS011;56376;53.356;-1.748;2022-09-28T00:14:00;3.13;;;1.50;;
69256;SDS011;56376;53.356;-1.748;2022-09-28T00:16:28;2.40;;;1.53;;
69256;SDS011;56376;53.356;-1.748;2022-09-28T00:18:55;3.03;;;1.60;;
69256;SDS011;56376;53.356;-1.748;2022-09-28T00:21:22;3.47;;;1.90;;
69256;SDS011;56376;53.356;-1.748;2022-09-28T00:23:52;2.77;;;1.53;;
69256;SDS011;56376;53.356;-1.748;2022-09-28T00:26:40;3.40;;;1.50;;
69256;SDS011;56376;53.356;-1.748;2022-09-28T00:31:49;3.20;;;1.90;;
69256;SDS011;56376;53.356;-1.748;2022-09-28T00:34:16;3.10;;;1.70;;
69256;SDS011;56376;53.356;-1.748;2022-09-28T00:36:43;3.77;;;1.70;;
69256;SDS011;56376;53.356;-1.748;2022-09-28T00:39:10;2.30;;;1.47;;
69256;SDS011;56376;53.356;-1.748;2022-09-28T00:41:36;2.30;;;1.40;;
69256;SDS011;56376;53.356;-1.748;2022-09-28T00:50:11;3.27;;;1.60;;
69256;SDS011;56376;53.356;-1.748;2022-09-28T00:55:24;3.00;;;1.30;;
69256;SDS011;56376;53.356;-1.748;2022-09-28T00:57:55;1.70;;;1.30;;
69256;SDS011;56376;53.356;-1.748;2022-09-28T01:00:24;4.23;;;1.90;;
69256;SDS011;56376;53.356;-1.748;2022-09-28T01:02:50;3.73;;;1.47;;
69256;SDS011;56376;53.356;-1.748;2022-09-28T01:05:15;2.03;;;1.50;;
69256;SDS011;56376;53.356;-1.748;2022-09-28T01:07:42;2.63;;;1.23;;
69256;SDS011;56376;53.356;-1.748;2022-09-28T01:10:08;3.20;;;1.67;;
69256;SDS011;56376;53.356;-1.748;2022-09-28T01:12:34;3.47;;;1.40;;
69256;SDS011;56376;53.356;-1.748;2022-09-28T01:14:59;2.50;;;1.20;;
69256;SDS011;56376;53.356;-1.748;2022-09-28T01:20:47;1.73;;;1.20;;
69256;SDS011;56376;53.356;-1.748;2022-09-28T01:31:45;2.00;;;1.20;;
69256;SDS011;56376;53.356;-1.748;2022-09-28T01:34:19;1.50;;;0.90;;
69256;SDS011;56376;53.356;-1.748;2022-09-28T01:36:52;1.30;;;0.83;;
69256;SDS011;56376;53.356;-1.748;2022-09-28T01:39:23;2.07;;;1.23;;
69256;SDS011;56376;53.356;-1.748;2022-09-28T01:41:58;3.20;;;1.10;;
69256;SDS011;56376;53.356;-1.748;2022-09-28T01:44:29;1.50;;;1.13;;
69256;SDS011;56376;53.356;-1.748;2022-09-28T01:49:36;1.47;;;0.90;;
69256;SDS011;56376;53.356;-1.748;2022-09-28T01:52:09;1.40;;;0.90;;
69256;SDS011;56376;53.356;-1.748;2022-09-28T01:54:44;1.23;;;0.80;;
69256;SDS011;56376;53.356;-1.748;2022-09-28T02:00:03;0.70;;;0.70;;
69256;SDS011;56376;53.356;-1.748;2022-09-28T02:02:33;1.10;;;0.70;;
69256;SDS011;56376;53.356;-1.748;2022-09-28T02:05:05;1.57;;;0.90;;
69256;SDS011;56376;53.356;-1.748;2022-09-28T02:07:39;1.58;;;1.27;;
69256;SDS011;56376;53.356;-1.748;2022-09-28T02:10:21;1.80;;;0.70;;
69256;SDS011;56376;53.356;-1.748;2022-09-28T02:12:50;2.63;;;0.90;;
69256;SDS011;56376;53.356;-1.748;2022-09-28T02:15:25;0.90;;;0.70;;
69256;SDS011;56376;53.356;-1.748;2022-09-28T02:17:55;1.37;;;1.07;;
69256;SDS011;56376;53.356;-1.748;2022-09-28T02:20:21;1.17;;;0.80;;
69256;SDS011;56376;53.356;-1.748;2022-09-28T02:22:52;1.03;;;0.70;;
69256;SDS011;56376;53.356;-1.748;2022-09-28T02:25:22;0.77;;;0.60;;
69256;SDS011;56376;53.356;-1.748;2022-09-28T02:30:24;1.47;;;0.90;;
69256;SDS011;56376;53.356;-1.748;2022-09-28T02:32:51;1.50;;;0.57;;
69256;SDS011;56376;53.356;-1.748;2022-09-28T02:35:20;1.10;;;0.90;;
69256;SDS011;56376;53.356;-1.748;2022-09-28T02:37:47;1.07;;;0.70;;
69256;SDS011;56376;53.356;-1.748;2022-09-28T02:40:21;2.10;;;0.90;;
69256;SDS011;56376;53.356;-1.748;2022-09-28T02:43:01;0.90;;;0.73;;
69256;SDS011;56376;53.356;-1.748;2022-09-28T02:48:18;1.20;;;0.70;;
69256;SDS011;56376;53.356;-1.748;2022-09-28T02:51:08;1.93;;;0.90;;
69256;SDS011;56376;53.356;-1.748;2022-09-28T02:54:04;1.00;;;0.77;;
69256;SDS011;56376;53.356;-1.748;2022-09-28T02:56:45;1.47;;;0.80;;
69256;SDS011;56376;53.356;-1.748;2022-09-28T03:02:21;1.00;;;0.60;;
69256;SDS011;56376;53.356;-1.748;2022-09-28T03:10:35;1.47;;;0.70;;
69256;SDS011;56376;53.356;-1.748;2022-09-28T03:12:47;1.30;;;0.85;;
69256;SDS011;56376;53.356;-1.748;2022-09-28T03:15:19;1.23;;;0.53;;
69256;SDS011;56376;53.356;-1.748;2022-09-28T03:17:45;1.33;;;0.90;;
69256;SDS011;56376;53.356;-1.748;2022-09-28T03:20:10;1.60;;;0.50;;
69256;SDS011;56376;53.356;-1.748;2022-09-28T03:22:36;0.90;;;0.73;;
69256;SDS011;56376;53.356;-1.748;2022-09-28T03:25:02;0.50;;;0.50;;
69256;SDS011;56376;53.356;-1.748;2022-09-28T03:27:28;2.07;;;0.60;;
69256;SDS011;56376;53.356;-1.748;2022-09-28T03:29:53;0.73;;;0.53;;
69256;SDS011;56376;53.356;-1.748;2022-09-28T03:32:19;0.40;;;0.40;;
69256;SDS011;56376;53.356;-1.748;2022-09-28T03:34:44;0.87;;;0.60;;
69256;SDS011;56376;53.356;-1.748;2022-09-28T03:37:09;1.80;;;0.60;;
69256;SDS011;56376;53.356;-1.748;2022-09-28T03:39:35;1.87;;;0.67;;
69256;SDS011;56376;53.356;-1.748;2022-09-28T03:42:00;2.70;;;0.80;;
69256;SDS011;56376;53.356;-1.748;2022-09-28T03:44:26;1.03;;;0.60;;
69256;SDS011;56376;53.356;-1.748;2022-09-28T03:46:51;0.60;;;0.53;;
69256;SDS011;56376;53.356;-1.748;2022-09-28T03:49:16;0.60;;;0.60;;
69256;SDS011;56376;53.356;-1.748;2022-09-28T03:51:45;0.67;;;0.53;;
69256;SDS011;56376;53.356;-1.748;2022-09-28T03:54:11;1.33;;;0.80;;
69256;SDS011;56376;53.356;-1.748;2022-09-28T03:56:37;0.63;;;0.50;;
69256;SDS011;56376;53.356;-1.748;2022-09-28T03:59:02;1.07;;;0.63;;
69256;SDS011;56376;53.356;-1.748;2022-09-28T04:01:28;0.90;;;0.60;;
69256;SDS011;56376;53.356;-1.748;2022-09-28T04:03:54;1.43;;;0.50;;
69256;SDS011;56376;53.356;-1.748;2022-09-28T04:06:22;0.50;;;0.50;;
69256;SDS011;56376;53.356;-1.748;2022-09-28T04:08:49;0.30;;;0.30;;
69256;SDS011;56376;53.356;-1.748;2022-09-28T04:11:14;1.17;;;0.60;;
69256;SDS011;56376;53.356;-1.748;2022-09-28T04:13:39;0.57;;;0.53;;
69256;SDS011;56376;53.356;-1.748;2022-09-28T04:16:05;0.70;;;0.70;;
69256;SDS011;56376;53.356;-1.748;2022-09-28T04:18:31;1.23;;;0.70;;
69256;SDS011;56376;53.356;-1.748;2022-09-28T04:21:00;0.70;;;0.47;;
69256;SDS011;56376;53.356;-1.748;2022-09-28T04:23:27;1.23;;;0.83;;
69256;SDS011;56376;53.356;-1.748;2022-09-28T04:25:53;1.83;;;0.50;;
69256;SDS011;56376;53.356;-1.748;2022-09-28T04:28:18;1.30;;;0.60;;
69256;SDS011;56376;53.356;-1.748;2022-09-28T04:31:02;0.60;;;0.60;;
69256;SDS011;56376;53.356;-1.748;2022-09-28T04:33:28;1.13;;;0.80;;
69256;SDS011;56376;53.356;-1.748;2022-09-28T04:35:53;1.03;;;0.90;;
69256;SDS011;56376;53.356;-1.748;2022-09-28T04:38:18;1.40;;;0.60;;
69256;SDS011;56376;53.356;-1.748;2022-09-28T04:40:44;0.53;;;0.50;;
69256;SDS011;56376;53.356;-1.748;2022-09-28T04:43:13;1.33;;;0.60;;
69256;SDS011;56376;53.356;-1.748;2022-09-28T04:45:38;1.10;;;0.50;;
69256;SDS011;56376;53.356;-1.748;2022-09-28T04:48:05;0.50;;;0.50;;
69256;SDS011;56376;53.356;-1.748;2022-09-28T04:50:31;1.20;;;0.60;;
69256;SDS011;56376;53.356;-1.748;2022-09-28T04:52:59;1.27;;;0.50;;
69256;SDS011;56376;53.356;-1.748;2022-09-28T04:55:25;0.67;;;0.60;;
69256;SDS011;56376;53.356;-1.748;2022-09-28T04:57:52;0.87;;;0.70;;
69256;SDS011;56376;53.356;-1.748;2022-09-28T05:00:18;0.80;;;0.60;;
69256;SDS011;56376;53.356;-1.748;2022-09-28T05:02:44;0.80;;;0.67;;
69256;SDS011;56376;53.356;-1.748;2022-09-28T05:05:09;0.70;;;0.60;;
69256;SDS011;56376;53.356;-1.748;2022-09-28T05:07:34;1.03;;;0.77;;
69256;SDS011;56376;53.356;-1.748;2022-09-28T05:10:00;0.40;;;0.40;;
69256;SDS011;56376;53.356;-1.748;2022-09-28T05:12:26;0.60;;;0.60;;
69256;SDS011;56376;53.356;-1.748;2022-09-28T05:14:51;2.40;;;0.83;;
69256;SDS011;56376;53.356;-1.748;2022-09-28T05:17:16;0.50;;;0.47;;
69256;SDS011;56376;53.356;-1.748;2022-09-28T05:19:42;0.53;;;0.53;;
69256;SDS011;56376;53.356;-1.748;2022-09-28T05:22:07;1.50;;;0.63;;
69256;SDS011;56376;53.356;-1.748;2022-09-28T05:24:37;0.50;;;0.50;;
69256;SDS011;56376;53.356;-1.748;2022-09-28T05:27:03;1.93;;;0.80;;
69256;SDS011;56376;53.356;-1.748;2022-09-28T05:29:29;1.57;;;0.87;;
69256;SDS011;56376;53.356;-1.748;2022-09-28T05:31:54;0.63;;;0.60;;
69256;SDS011;56376;53.356;-1.748;2022-09-28T05:34:19;0.70;;;0.70;;
69256;SDS011;56376;53.356;-1.748;2022-09-28T05:36:45;0.77;;;0.73;;
69256;SDS011;56376;53.356;-1.748;2022-09-28T05:39:10;1.33;;;0.97;;
69256;SDS011;56376;53.356;-1.748;2022-09-28T05:41:36;0.70;;;0.70;;
69256;SDS011;56376;53.356;-1.748;2022-09-28T05:44:01;0.70;;;0.70;;
69256;SDS011;56376;53.356;-1.748;2022-09-28T05:46:26;0.70;;;0.70;;
69256;SDS011;56376;53.356;-1.748;2022-09-28T05:48:52;1.10;;;0.70;;
69256;SDS011;56376;53.356;-1.748;2022-09-28T05:51:18;1.03;;;0.77;;
69256;SDS011;56376;53.356;-1.748;2022-09-28T05:53:44;1.80;;;0.80;;
69256;SDS011;56376;53.356;-1.748;2022-09-28T05:56:09;1.90;;;1.07;;
69256;SDS011;56376;53.356;-1.748;2022-09-28T05:58:35;0.80;;;0.80;;
69256;SDS011;56376;53.356;-1.748;2022-09-28T06:01:00;0.97;;;0.60;;
69256;SDS011;56376;53.356;-1.748;2022-09-28T06:03:26;0.60;;;0.60;;
69256;SDS011;56376;53.356;-1.748;2022-09-28T06:05:51;0.60;;;0.50;;
69256;SDS011;56376;53.356;-1.748;2022-09-28T06:08:17;0.60;;;0.60;;
69256;SDS011;56376;53.356;-1.748;2022-09-28T06:10:42;0.70;;;0.60;;
69256;SDS011;56376;53.356;-1.748;2022-09-28T06:13:08;0.50;;;0.50;;
69256;SDS011;56376;53.356;-1.748;2022-09-28T06:15:34;0.50;;;0.50;;
69256;SDS011;56376;53.356;-1.748;2022-09-28T06:18:04;0.80;;;0.60;;
69256;SDS011;56376;53.356;-1.748;2022-09-28T06:20:32;0.60;;;0.60;;
69256;SDS011;56376;53.356;-1.748;2022-09-28T06:23:00;1.20;;;0.80;;
69256;SDS011;56376;53.356;-1.748;2022-09-28T06:25:26;0.73;;;0.67;;
69256;SDS011;56376;53.356;-1.748;2022-09-28T06:27:55;1.00;;;0.70;;
69256;SDS011;56376;53.356;-1.748;2022-09-28T06:30:22;1.53;;;0.60;;
69256;SDS011;56376;53.356;-1.748;2022-09-28T06:32:54;0.70;;;0.50;;
69256;SDS011;56376;53.356;-1.748;2022-09-28T06:35:21;0.50;;;0.50;;
69256;SDS011;56376;53.356;-1.748;2022-09-28T06:37:48;1.03;;;0.70;;
69256;SDS011;56376;53.356;-1.748;2022-09-28T06:40:13;0.73;;;0.60;;
69256;SDS011;56376;53.356;-1.748;2022-09-28T06:42:39;1.13;;;0.70;;
69256;SDS011;56376;53.356;-1.748;2022-09-28T06:45:05;2.10;;;0.67;;
69256;SDS011;56376;53.356;-1.748;2022-09-28T06:47:31;0.77;;;0.70;;
69256;SDS011;56376;53.356;-1.748;2022-09-28T06:49:57;1.03;;;0.87;;
69256;SDS011;56376;53.356;-1.748;2022-09-28T06:52:23;1.40;;;0.73;;
69256;SDS011;56376;53.356;-1.748;2022-09-28T06:54:49;1.53;;;0.80;;
69256;SDS011;56376;53.356;-1.748;2022-09-28T06:57:15;0.80;;;0.80;;
69256;SDS011;56376;53.356;-1.748;2022-09-28T06:59:40;1.20;;;0.70;;
69256;SDS011;56376;53.356;-1.748;2022-09-28T07:02:07;1.40;;;0.90;;
69256;SDS011;56376;53.356;-1.748;2022-09-28T07:04:35;2.20;;;1.00;;
69256;SDS011;56376;53.356;-1.748;2022-09-28T07:07:00;0.53;;;0.53;;
69256;SDS011;56376;53.356;-1.748;2022-09-28T07:09:26;1.77;;;1.10;;
69256;SDS011;56376;53.356;-1.748;2022-09-28T07:11:51;0.80;;;0.80;;
69256;SDS011;56376;53.356;-1.748;2022-09-28T07:14:17;1.73;;;1.03;;
69256;SDS011;56376;53.356;-1.748;2022-09-28T07:16:44;1.10;;;1.00;;
69256;SDS011;56376;53.356;-1.748;2022-09-28T07:19:10;1.87;;;1.30;;
69256;SDS011;56376;53.356;-1.748;2022-09-28T07:21:35;1.37;;;1.07;;
69256;SDS011;56376;53.356;-1.748;2022-09-28T07:24:01;1.40;;;1.27;;
69256;SDS011;56376;53.356;-1.748;2022-09-28T07:26:26;1.20;;;1.10;;
69256;SDS011;56376;53.356;-1.748;2022-09-28T07:28:52;1.60;;;1.20;;
69256;SDS011;56376;53.356;-1.748;2022-09-28T07:31:19;2.17;;;1.40;;
69256;SDS011;56376;53.356;-1.748;2022-09-28T07:33:45;1.00;;;0.97;;
69256;SDS011;56376;53.356;-1.748;2022-09-28T07:36:15;1.73;;;1.10;;
69256;SDS011;56376;53.356;-1.748;2022-09-28T07:38:41;1.20;;;0.90;;
69256;SDS011;56376;53.356;-1.748;2022-09-28T07:41:07;1.07;;;0.83;;
69256;SDS011;56376;53.356;-1.748;2022-09-28T07:43:36;1.53;;;0.97;;
69256;SDS011;56376;53.356;-1.748;2022-09-28T07:46:03;3.43;;;0.87;;
69256;SDS011;56376;53.356;-1.748;2022-09-28T07:48:33;0.77;;;0.77;;
69256;SDS011;56376;53.356;-1.748;2022-09-28T07:51:00;1.10;;;0.80;;
69256;SDS011;56376;53.356;-1.748;2022-09-28T07:53:26;0.80;;;0.80;;
69256;SDS011;56376;53.356;-1.748;2022-09-28T07:55:56;1.27;;;0.80;;
69256;SDS011;56376;53.356;-1.748;2022-09-28T07:58:31;0.53;;;0.53;;
69256;SDS011;56376;53.356;-1.748;2022-09-28T08:00:57;1.33;;;0.80;;
69256;SDS011;56376;53.356;-1.748;2022-09-28T08:03:25;2.83;;;1.47;;
69256;SDS011;56376;53.356;-1.748;2022-09-28T08:05:55;1.00;;;0.77;;
69256;SDS011;56376;53.356;-1.748;2022-09-28T08:08:22;0.70;;;0.70;;
69256;SDS011;56376;53.356;-1.748;2022-09-28T08:10:47;2.13;;;0.80;;
69256;SDS011;56376;53.356;-1.748;2022-09-28T08:13:14;5.50;;;1.07;;
69256;SDS011;56376;53.356;-1.748;2022-09-28T08:15:40;0.90;;;0.80;;
69256;SDS011;56376;53.356;-1.748;2022-09-28T08:18:06;1.90;;;0.70;;
69256;SDS011;56376;53.356;-1.748;2022-09-28T08:20:32;1.97;;;0.80;;
69256;SDS011;56376;53.356;-1.748;2022-09-28T08:23:16;1.53;;;0.70;;
69256;SDS011;56376;53.356;-1.748;2022-09-28T08:25:46;0.60;;;0.60;;
69256;SDS011;56376;53.356;-1.748;2022-09-28T08:28:13;1.00;;;0.90;;
69256;SDS011;56376;53.356;-1.748;2022-09-28T08:30:41;0.50;;;0.50;;
69256;SDS011;56376;53.356;-1.748;2022-09-28T08:33:06;1.55;;;0.68;;
69256;SDS011;56376;53.356;-1.748;2022-09-28T08:35:32;1.50;;;0.77;;
69256;SDS011;56376;53.356;-1.748;2022-09-28T08:37:57;2.53;;;0.70;;
69256;SDS011;56376;53.356;-1.748;2022-09-28T08:40:24;0.82;;;0.63;;
69256;SDS011;56376;53.356;-1.748;2022-09-28T08:42:59;0.98;;;0.70;;
69256;SDS011;56376;53.356;-1.748;2022-09-28T08:45:30;1.92;;;0.70;;
69256;SDS011;56376;53.356;-1.748;2022-09-28T08:48:04;2.83;;;1.00;;
69256;SDS011;56376;53.356;-1.748;2022-09-28T08:51:18;0.82;;;0.65;;
69256;SDS011;56376;53.356;-1.748;2022-09-28T08:53:52;2.13;;;0.77;;
69256;SDS011;56376;53.356;-1.748;2022-09-28T08:56:36;3.50;;;0.82;;
69256;SDS011;56376;53.356;-1.748;2022-09-28T08:59:08;1.90;;;0.55;;
69256;SDS011;56376;53.356;-1.748;2022-09-28T09:01:40;2.13;;;0.57;;
69256;SDS011;56376;53.356;-1.748;2022-09-28T09:04:11;1.23;;;0.60;;
69256;SDS011;56376;53.356;-1.748;2022-09-28T09:09:24;1.35;;;0.60;;
69256;SDS011;56376;53.356;-1.748;2022-09-28T09:15:30;0.45;;;0.40;;
69256;SDS011;56376;53.356;-1.748;2022-09-28T09:20:46;1.13;;;0.50;;
69256;SDS011;56376;53.356;-1.748;2022-09-28T09:23:17;0.77;;;0.50;;
69256;SDS011;56376;53.356;-1.748;2022-09-28T09:25:57;1.08;;;0.60;;
69256;SDS011;56376;53.356;-1.748;2022-09-28T09:28:47;0.60;;;0.45;;
69256;SDS011;56376;53.356;-1.748;2022-09-28T09:37:15;1.92;;;0.68;;
69256;SDS011;56376;53.356;-1.748;2022-09-28T09:45:34;0.40;;;0.40;;
69256;SDS011;56376;53.356;-1.748;2022-09-28T09:48:03;1.00;;;0.52;;
69256;SDS011;56376;53.356;-1.748;2022-09-28T09:50:39;1.77;;;0.57;;
69256;SDS011;56376;53.356;-1.748;2022-09-28T09:53:20;2.65;;;0.70;;
69256;SDS011;56376;53.356;-1.748;2022-09-28T09:55:51;0.85;;;0.50;;
69256;SDS011;56376;53.356;-1.748;2022-09-28T09:58:29;0.45;;;0.45;;
69256;SDS011;56376;53.356;-1.748;2022-09-28T10:01:22;0.60;;;0.60;;
69256;SDS011;56376;53.356;-1.748;2022-09-28T10:03:51;0.52;;;0.45;;
69256;SDS011;56376;53.356;-1.748;2022-09-28T10:06:23;0.93;;;0.60;;
69256;SDS011;56376;53.356;-1.748;2022-09-28T10:11:32;0.63;;;0.60;;
69256;SDS011;56376;53.356;-1.748;2022-09-28T10:14:02;0.70;;;0.70;;
69256;SDS011;56376;53.356;-1.748;2022-09-28T10:16:28;0.65;;;0.52;;
69256;SDS011;56376;53.356;-1.748;2022-09-28T10:18:54;1.38;;;0.80;;
69256;SDS011;56376;53.356;-1.748;2022-09-28T10:21:20;1.10;;;0.60;;
69256;SDS011;56376;53.356;-1.748;2022-09-28T10:23:49;0.68;;;0.68;;
69256;SDS011;56376;53.356;-1.748;2022-09-28T10:26:26;0.90;;;0.60;;
69256;SDS011;56376;53.356;-1.748;2022-09-28T10:28:58;2.28;;;0.80;;
69256;SDS011;56376;53.356;-1.748;2022-09-28T10:34:09;0.70;;;0.60;;
69256;SDS011;56376;53.356;-1.748;2022-09-28T10:36:44;2.03;;;0.88;;
69256;SDS011;56376;53.356;-1.748;2022-09-28T10:42:04;0.88;;;0.60;;
69256;SDS011;56376;53.356;-1.748;2022-09-28T10:44:33;1.33;;;0.65;;
69256;SDS011;56376;53.356;-1.748;2022-09-28T10:47:08;0.52;;;0.50;;
69256;SDS011;56376;53.356;-1.748;2022-09-28T10:49:42;1.38;;;0.68;;
69256;SDS011;56376;53.356;-1.748;2022-09-28T10:52:29;0.85;;;0.75;;
69256;SDS011;56376;53.356;-1.748;2022-09-28T10:55:23;0.60;;;0.60;;
69256;SDS011;56376;53.356;-1.748;2022-09-28T10:57:49;0.47;;;0.47;;
69256;SDS011;56376;53.356;-1.748;2022-09-28T11:03:00;0.82;;;0.80;;
69256;SDS011;56376;53.356;-1.748;2022-09-28T11:05:26;0.77;;;0.70;;
69256;SDS011;56376;53.356;-1.748;2022-09-28T11:07:52;1.35;;;0.70;;
69256;SDS011;56376;53.356;-1.748;2022-09-28T11:10:24;0.82;;;0.80;;
69256;SDS011;56376;53.356;-1.748;2022-09-28T11:12:52;2.05;;;0.75;;
69256;SDS011;56376;53.356;-1.748;2022-09-28T11:15:19;1.23;;;0.80;;
69256;SDS011;56376;53.356;-1.748;2022-09-28T11:17:48;1.85;;;0.73;;
69256;SDS011;56376;53.356;-1.748;2022-09-28T11:22:52;1.45;;;1.05;;
69256;SDS011;56376;53.356;-1.748;2022-09-28T11:25:21;1.30;;;0.75;;
69256;SDS011;56376;53.356;-1.748;2022-09-28T11:32:54;1.70;;;1.23;;
69256;SDS011;56376;53.356;-1.748;2022-09-28T11:35:49;1.63;;;1.17;;
69256;SDS011;56376;53.356;-1.748;2022-09-28T11:38:39;3.28;;;1.17;;
69256;SDS011;56376;53.356;-1.748;2022-09-28T11:49:30;1.73;;;1.58;;
69256;SDS011;56376;53.356;-1.748;2022-09-28T11:52:01;2.33;;;1.38;;
69256;SDS011;56376;53.356;-1.748;2022-09-28T11:57:11;1.98;;;1.20;;
69256;SDS011;56376;53.356;-1.748;2022-09-28T11:59:49;2.25;;;1.50;;
69256;SDS011;56376;53.356;-1.748;2022-09-28T12:02:28;3.13;;;1.20;;
69256;SDS011;56376;53.356;-1.748;2022-09-28T12:07:46;1.92;;;1.60;;
69256;SDS011;56376;53.356;-1.748;2022-09-28T12:10:37;2.17;;;1.27;;
69256;SDS011;56376;53.356;-1.748;2022-09-28T12:13:24;2.55;;;0.60;;
69256;SDS011;56376;53.356;-1.748;2022-09-28T12:15:53;0.93;;;0.70;;
69256;SDS011;56376;53.356;-1.748;2022-09-28T12:23:59;0.85;;;0.85;;
69256;SDS011;56376;53.356;-1.748;2022-09-28T12:26:38;1.13;;;0.93;;
69256;SDS011;56376;53.356;-1.748;2022-09-28T12:29:26;1.05;;;0.95;;
69256;SDS011;56376;53.356;-1.748;2022-09-28T12:34:55;1.58;;;0.93;;
69256;SDS011;56376;53.356;-1.748;2022-09-28T12:37:40;1.52;;;0.77;;
69256;SDS011;56376;53.356;-1.748;2022-09-28T12:43:01;0.90;;;0.80;;
69256;SDS011;56376;53.356;-1.748;2022-09-28T12:54:22;1.45;;;0.95;;
69256;SDS011;56376;53.356;-1.748;2022-09-28T12:59:41;1.48;;;1.30;;
69256;SDS011;56376;53.356;-1.748;2022-09-28T13:02:31;1.88;;;1.23;;
69256;SDS011;56376;53.356;-1.748;2022-09-28T13:08:04;1.60;;;0.95;;
69256;SDS011;56376;53.356;-1.748;2022-09-28T13:10:50;0.88;;;0.88;;
69256;SDS011;56376;53.356;-1.748;2022-09-28T13:13:43;1.38;;;0.98;;
69256;SDS011;56376;53.356;-1.748;2022-09-28T13:24:11;1.77;;;1.20;;
69256;SDS011;56376;53.356;-1.748;2022-09-28T13:26:42;1.00;;;0.90;;
69256;SDS011;56376;53.356;-1.748;2022-09-28T13:29:12;1.58;;;1.00;;
69256;SDS011;56376;53.356;-1.748;2022-09-28T13:31:43;1.55;;;0.88;;
69256;SDS011;56376;53.356;-1.748;2022-09-28T13:34:14;1.48;;;0.88;;
69256;SDS011;56376;53.356;-1.748;2022-09-28T13:36:44;0.70;;;0.70;;
69256;SDS011;56376;53.356;-1.748;2022-09-28T13:42:01;0.70;;;0.70;;
69256;SDS011;56376;53.356;-1.748;2022-09-28T13:44:53;1.35;;;0.70;;
69256;SDS011;56376;53.356;-1.748;2022-09-28T13:55:59;1.02;;;0.80;;
69256;SDS011;56376;53.356;-1.748;2022-09-28T13:58:59;0.55;;;0.50;;
69256;SDS011;56376;53.356;-1.748;2022-09-28T14:01:39;1.77;;;0.90;;
69256;SDS011;56376;53.356;-1.748;2022-09-28T14:04:21;1.45;;;1.33;;
69256;SDS011;56376;53.356;-1.748;2022-09-28T14:07:08;1.02;;;0.80;;
69256;SDS011;56376;53.356;-1.748;2022-09-28T14:09:40;0.80;;;0.80;;
69256;SDS011;56376;53.356;-1.748;2022-09-28T14:20:38;1.58;;;0.82;;
69256;SDS011;56376;53.356;-1.748;2022-09-28T14:23:27;1.95;;;0.90;;
69256;SDS011;56376;53.356;-1.748;2022-09-28T14:26:15;1.10;;;0.90;;
69256;SDS011;56376;53.356;-1.748;2022-09-28T14:31:37;1.52;;;1.00;;
69256;SDS011;56376;53.356;-1.748;2022-09-28T14:34:17;0.85;;;0.73;;
69256;SDS011;56376;53.356;-1.748;2022-09-28T14:36:48;1.20;;;0.88;;
69256;SDS011;56376;53.356;-1.748;2022-09-28T14:42:19;0.88;;;0.73;;
69256;SDS011;56376;53.356;-1.748;2022-09-28T14:50:34;1.88;;;0.77;;
69256;SDS011;56376;53.356;-1.748;2022-09-28T14:53:04;0.82;;;0.70;;
69256;SDS011;56376;53.356;-1.748;2022-09-28T14:55:58;0.77;;;0.77;;
69256;SDS011;56376;53.356;-1.748;2022-09-28T14:58:25;0.80;;;0.77;;
69256;SDS011;56376;53.356;-1.748;2022-09-28T15:01:01;0.43;;;0.43;;
69256;SDS011;56376;53.356;-1.748;2022-09-28T15:03:31;0.60;;;0.60;;
69256;SDS011;56376;53.356;-1.748;2022-09-28T15:05:58;0.60;;;0.60;;
69256;SDS011;56376;53.356;-1.748;2022-09-28T15:08:34;0.68;;;0.50;;
69256;SDS011;56376;53.356;-1.748;2022-09-28T15:11:01;0.50;;;0.50;;
69256;SDS011;56376;53.356;-1.748;2022-09-28T15:13:27;1.85;;;0.73;;
69256;SDS011;56376;53.356;-1.748;2022-09-28T15:16:12;0.50;;;0.50;;
69256;SDS011;56376;53.356;-1.748;2022-09-28T15:18:53;0.70;;;0.60;;
69256;SDS011;56376;53.356;-1.748;2022-09-28T15:21:37;2.97;;;0.60;;
69256;SDS011;56376;53.356;-1.748;2022-09-28T15:26:57;1.73;;;0.60;;
69256;SDS011;56376;53.356;-1.748;2022-09-28T15:29:27;2.42;;;0.50;;
69256;SDS011;56376;53.356;-1.748;2022-09-28T15:31:57;0.60;;;0.60;;
69256;SDS011;56376;53.356;-1.748;2022-09-28T15:34:30;1.58;;;0.50;;
69256;SDS011;56376;53.356;-1.748;2022-09-28T15:37:16;1.10;;;0.50;;
69256;SDS011;56376;53.356;-1.748;2022-09-28T15:39:46;0.88;;;0.50;;
69256;SDS011;56376;53.356;-1.748;2022-09-28T15:42:13;0.47;;;0.47;;
69256;SDS011;56376;53.356;-1.748;2022-09-28T15:44:40;1.23;;;0.52;;
69256;SDS011;56376;53.356;-1.748;2022-09-28T15:47:10;0.82;;;0.60;;
69256;SDS011;56376;53.356;-1.748;2022-09-28T15:49:44;0.82;;;0.82;;
69256;SDS011;56376;53.356;-1.748;2022-09-28T15:52:22;1.00;;;0.60;;
69256;SDS011;56376;53.356;-1.748;2022-09-28T15:54:54;0.95;;;0.60;;
69256;SDS011;56376;53.356;-1.748;2022-09-28T15:57:32;1.73;;;0.70;;
69256;SDS011;56376;53.356;-1.748;2022-09-28T16:00:00;2.45;;;0.60;;
69256;SDS011;56376;53.356;-1.748;2022-09-28T16:02:29;0.85;;;0.80;;
69256;SDS011;56376;53.356;-1.748;2022-09-28T16:04:56;0.85;;;0.73;;
69256;SDS011;56376;53.356;-1.748;2022-09-28T16:07:29;1.50;;;0.73;;
69256;SDS011;56376;53.356;-1.748;2022-09-28T16:15:12;0.95;;;0.70;;
69256;SDS011;56376;53.356;-1.748;2022-09-28T16:17:40;1.40;;;1.02;;
69256;SDS011;56376;53.356;-1.748;2022-09-28T16:20:26;0.85;;;0.82;;
69256;SDS011;56376;53.356;-1.748;2022-09-28T16:22:59;0.95;;;0.80;;
69256;SDS011;56376;53.356;-1.748;2022-09-28T16:25:33;1.35;;;0.80;;
69256;SDS011;56376;53.356;-1.748;2022-09-28T16:28:03;1.73;;;1.20;;
69256;SDS011;56376;53.356;-1.748;2022-09-28T16:30:31;1.52;;;1.10;;
69256;SDS011;56376;53.356;-1.748;2022-09-28T16:35:24;1.48;;;1.10;;
69256;SDS011;56376;53.356;-1.748;2022-09-28T16:40:23;0.98;;;0.90;;
69256;SDS011;56376;53.356;-1.748;2022-09-28T16:42:49;0.80;;;0.80;;
69256;SDS011;56376;53.356;-1.748;2022-09-28T16:45:18;0.68;;;0.68;;
69256;SDS011;56376;53.356;-1.748;2022-09-28T16:47:46;1.98;;;0.93;;
69256;SDS011;56376;53.356;-1.748;2022-09-28T16:50:15;1.27;;;1.00;;
69256;SDS011;56376;53.356;-1.748;2022-09-28T16:52:41;1.23;;;0.88;;
69256;SDS011;56376;53.356;-1.748;2022-09-28T16:55:25;1.05;;;0.95;;
69256;SDS011;56376;53.356;-1.748;2022-09-28T16:57:51;0.90;;;0.70;;
69256;SDS011;56376;53.356;-1.748;2022-09-28T17:00:21;1.10;;;1.00;;
69256;SDS011;56376;53.356;-1.748;2022-09-28T17:02:51;1.13;;;0.80;;
69256;SDS011;56376;53.356;-1.748;2022-09-28T17:05:18;2.00;;;0.90;;
69256;SDS011;56376;53.356;-1.748;2022-09-28T17:07:45;1.60;;;1.50;;
69256;SDS011;56376;53.356;-1.748;2022-09-28T17:12:41;2.42;;;0.95;;
69256;SDS011;56376;53.356;-1.748;2022-09-28T17:15:06;1.27;;;0.90;;
69256;SDS011;56376;53.356;-1.748;2022-09-28T17:17:32;1.65;;;1.10;;
69256;SDS011;56376;53.356;-1.748;2022-09-28T17:19:58;1.48;;;0.90;;
69256;SDS011;56376;53.356;-1.748;2022-09-28T17:22:23;1.13;;;0.82;;
69256;SDS011;56376;53.356;-1.748;2022-09-28T17:24:48;0.80;;;0.80;;
69256;SDS011;56376;53.356;-1.748;2022-09-28T17:27:15;2.20;;;1.00;;
69256;SDS011;56376;53.356;-1.748;2022-09-28T17:29:43;2.72;;;1.00;;
69256;SDS011;56376;53.356;-1.748;2022-09-28T17:32:16;1.38;;;0.73;;
69256;SDS011;56376;53.356;-1.748;2022-09-28T17:34:42;0.80;;;0.80;;
69256;SDS011;56376;53.356;-1.748;2022-09-28T17:37:11;3.45;;;1.00;;
69256;SDS011;56376;53.356;-1.748;2022-09-28T17:39:38;1.40;;;1.00;;
69256;SDS011;56376;53.356;-1.748;2022-09-28T17:42:03;0.90;;;0.90;;
69256;SDS011;56376;53.356;-1.748;2022-09-28T17:44:29;2.80;;;1.10;;
69256;SDS011;56376;53.356;-1.748;2022-09-28T17:46:54;1.55;;;0.93;;
69256;SDS011;56376;53.356;-1.748;2022-09-28T17:49:20;1.60;;;0.90;;